sensor_id;sensor_type;location;lat;lon;timestamp;P1;durP1;ratioP1;P2;durP2;ratioP2
56307;SDS011;42217;50.422;7.210;2023-04-03T00:01:00;66.57;;;63.33;;
56307;SDS011;42217;50.422;7.210;2023-04-03T00:03:26;77.40;;;73.90;;
56307;SDS011;42217;50.422;7.210;2023-04-03T00:05:52;66.60;;;63.60;;
56307;SDS011;42217;50.422;7.210;2023-04-03T00:08:17;72.67;;;69.13;;
56307;SDS011;42217;50.422;7.210;2023-04-03T00:10:44;73.27;;;69.87;;
56307;SDS011;42217;50.422;7.210;2023-04-03T00:13:10;77.10;;;73.07;;
56307;SDS011;42217;50.422;7.210;2023-04-03T00:15:36;73.57;;;70.17;;
56307;SDS011;42217;50.422;7.210;2023-04-03T00:18:03;74.63;;;70.67;;
56307;SDS011;42217;50.422;7.210;2023-04-03T00:20:29;75.70;;;72.00;;
56307;SDS011;42217;50.422;7.210;2023-04-03T00:22:55;74.20;;;70.90;;
56307;SDS011;42217;50.422;7.210;2023-04-03T00:25:21;76.70;;;73.10;;
56307;SDS011;42217;50.422;7.210;2023-04-03T00:27:47;70.37;;;67.00;;
56307;SDS011;42217;50.422;7.210;2023-04-03T00:30:14;75.93;;;72.43;;
56307;SDS011;42217;50.422;7.210;2023-04-03T00:32:42;77.07;;;73.40;;
56307;SDS011;42217;50.422;7.210;2023-04-03T00:35:07;72.27;;;68.80;;
56307;SDS011;42217;50.422;7.210;2023-04-03T00:37:34;68.03;;;64.93;;
56307;SDS011;42217;50.422;7.210;2023-04-03T00:40:00;68.00;;;64.70;;
56307;SDS011;42217;50.422;7.210;2023-04-03T00:42:26;68.30;;;65.20;;
56307;SDS011;42217;50.422;7.210;2023-04-03T00:47:20;77.20;;;73.47;;
56307;SDS011;42217;50.422;7.210;2023-04-03T00:49:47;74.13;;;70.67;;
56307;SDS011;42217;50.422;7.210;2023-04-03T00:52:16;75.67;;;72.00;;
56307;SDS011;42217;50.422;7.210;2023-04-03T00:54:44;73.20;;;69.70;;
56307;SDS011;42217;50.422;7.210;2023-04-03T00:57:12;73.70;;;70.33;;
56307;SDS011;42217;50.422;7.210;2023-04-03T00:59:41;72.27;;;69.00;;
56307;SDS011;42217;50.422;7.210;2023-04-03T01:02:11;67.40;;;64.40;;
56307;SDS011;42217;50.422;7.210;2023-04-03T01:04:38;71.03;;;67.63;;
56307;SDS011;42217;50.422;7.210;2023-04-03T01:07:14;70.60;;;67.33;;
56307;SDS011;42217;50.422;7.210;2023-04-03T01:09:42;68.63;;;65.33;;
56307;SDS011;42217;50.422;7.210;2023-04-03T01:12:18;69.70;;;66.13;;
56307;SDS011;42217;50.422;7.210;2023-04-03T01:14:48;73.67;;;70.33;;
56307;SDS011;42217;50.422;7.210;2023-04-03T01:17:36;66.33;;;63.07;;
56307;SDS011;42217;50.422;7.210;2023-04-03T01:20:26;66.97;;;63.57;;
56307;SDS011;42217;50.422;7.210;2023-04-03T01:28:04;71.53;;;68.13;;
56307;SDS011;42217;50.422;7.210;2023-04-03T01:30:38;73.10;;;69.43;;
56307;SDS011;42217;50.422;7.210;2023-04-03T01:33:11;64.83;;;61.33;;
56307;SDS011;42217;50.422;7.210;2023-04-03T01:35:37;64.53;;;61.53;;
56307;SDS011;42217;50.422;7.210;2023-04-03T01:38:03;65.00;;;61.77;;
56307;SDS011;42217;50.422;7.210;2023-04-03T01:40:29;71.47;;;67.17;;
56307;SDS011;42217;50.422;7.210;2023-04-03T01:42:55;59.67;;;56.90;;
56307;SDS011;42217;50.422;7.210;2023-04-03T01:45:20;63.63;;;60.60;;
56307;SDS011;42217;50.422;7.210;2023-04-03T01:47:46;65.53;;;62.33;;
56307;SDS011;42217;50.422;7.210;2023-04-03T01:50:12;63.53;;;60.33;;
56307;SDS011;42217;50.422;7.210;2023-04-03T01:52:38;62.90;;;59.80;;
56307;SDS011;42217;50.422;7.210;2023-04-03T01:55:03;61.63;;;58.87;;
56307;SDS011;42217;50.422;7.210;2023-04-03T01:57:29;62.17;;;59.07;;
56307;SDS011;42217;50.422;7.210;2023-04-03T01:59:55;60.97;;;58.17;;
56307;SDS011;42217;50.422;7.210;2023-04-03T02:02:21;61.00;;;58.10;;
56307;SDS011;42217;50.422;7.210;2023-04-03T02:04:46;60.67;;;57.87;;
56307;SDS011;42217;50.422;7.210;2023-04-03T02:07:12;62.30;;;59.27;;
56307;SDS011;42217;50.422;7.210;2023-04-03T02:09:38;63.20;;;60.30;;
56307;SDS011;42217;50.422;7.210;2023-04-03T02:12:03;57.33;;;54.37;;
56307;SDS011;42217;50.422;7.210;2023-04-03T02:14:29;60.10;;;57.17;;
56307;SDS011;42217;50.422;7.210;2023-04-03T02:16:55;63.80;;;60.47;;
56307;SDS011;42217;50.422;7.210;2023-04-03T02:19:21;59.63;;;56.70;;
56307;SDS011;42217;50.422;7.210;2023-04-03T02:21:47;64.60;;;61.33;;
56307;SDS011;42217;50.422;7.210;2023-04-03T02:24:12;60.73;;;57.87;;
56307;SDS011;42217;50.422;7.210;2023-04-03T02:26:38;63.17;;;60.27;;
56307;SDS011;42217;50.422;7.210;2023-04-03T02:29:04;62.27;;;59.27;;
56307;SDS011;42217;50.422;7.210;2023-04-03T02:31:30;63.23;;;60.13;;
56307;SDS011;42217;50.422;7.210;2023-04-03T02:33:56;59.40;;;56.43;;
56307;SDS011;42217;50.422;7.210;2023-04-03T02:36:22;57.13;;;54.30;;
56307;SDS011;42217;50.422;7.210;2023-04-03T02:38:48;61.43;;;58.43;;
56307;SDS011;42217;50.422;7.210;2023-04-03T02:41:13;59.43;;;56.60;;
56307;SDS011;42217;50.422;7.210;2023-04-03T02:43:39;61.87;;;58.67;;
56307;SDS011;42217;50.422;7.210;2023-04-03T02:46:05;60.20;;;57.37;;
56307;SDS011;42217;50.422;7.210;2023-04-03T02:48:31;64.07;;;60.97;;
56307;SDS011;42217;50.422;7.210;2023-04-03T02:50:57;63.53;;;60.63;;
56307;SDS011;42217;50.422;7.210;2023-04-03T02:53:23;65.60;;;62.50;;
56307;SDS011;42217;50.422;7.210;2023-04-03T02:55:49;61.87;;;58.97;;
56307;SDS011;42217;50.422;7.210;2023-04-03T02:58:15;61.97;;;58.97;;
56307;SDS011;42217;50.422;7.210;2023-04-03T03:00:41;58.73;;;55.93;;
56307;SDS011;42217;50.422;7.210;2023-04-03T03:03:06;56.97;;;53.97;;
56307;SDS011;42217;50.422;7.210;2023-04-03T03:05:32;56.23;;;53.63;;
56307;SDS011;42217;50.422;7.210;2023-04-03T03:07:58;57.40;;;54.60;;
56307;SDS011;42217;50.422;7.210;2023-04-03T03:10:24;57.23;;;54.33;;
56307;SDS011;42217;50.422;7.210;2023-04-03T03:12:50;61.00;;;58.23;;
56307;SDS011;42217;50.422;7.210;2023-04-03T03:15:16;62.53;;;58.97;;
56307;SDS011;42217;50.422;7.210;2023-04-03T03:17:44;60.50;;;57.23;;
56307;SDS011;42217;50.422;7.210;2023-04-03T03:20:10;59.97;;;56.87;;
56307;SDS011;42217;50.422;7.210;2023-04-03T03:22:37;56.10;;;53.03;;
56307;SDS011;42217;50.422;7.210;2023-04-03T03:25:03;64.60;;;61.60;;
56307;SDS011;42217;50.422;7.210;2023-04-03T03:27:29;67.03;;;64.00;;
56307;SDS011;42217;50.422;7.210;2023-04-03T03:29:55;72.40;;;68.93;;
56307;SDS011;42217;50.422;7.210;2023-04-03T03:32:21;63.57;;;60.57;;
56307;SDS011;42217;50.422;7.210;2023-04-03T03:34:47;65.33;;;62.23;;
56307;SDS011;42217;50.422;7.210;2023-04-03T03:37:12;60.73;;;57.93;;
56307;SDS011;42217;50.422;7.210;2023-04-03T03:39:38;60.57;;;57.57;;
56307;SDS011;42217;50.422;7.210;2023-04-03T03:42:04;65.10;;;62.10;;
56307;SDS011;42217;50.422;7.210;2023-04-03T03:44:30;65.57;;;62.33;;
56307;SDS011;42217;50.422;7.210;2023-04-03T03:46:56;67.57;;;64.37;;
56307;SDS011;42217;50.422;7.210;2023-04-03T03:49:21;64.20;;;61.00;;
56307;SDS011;42217;50.422;7.210;2023-04-03T03:51:47;68.87;;;65.50;;
56307;SDS011;42217;50.422;7.210;2023-04-03T03:54:13;60.93;;;57.80;;
56307;SDS011;42217;50.422;7.210;2023-04-03T03:56:39;65.47;;;62.13;;
56307;SDS011;42217;50.422;7.210;2023-04-03T03:59:05;63.27;;;60.13;;
56307;SDS011;42217;50.422;7.210;2023-04-03T04:01:31;65.80;;;62.80;;
56307;SDS011;42217;50.422;7.210;2023-04-03T04:03:57;62.97;;;60.07;;
56307;SDS011;42217;50.422;7.210;2023-04-03T04:06:23;55.90;;;53.20;;
56307;SDS011;42217;50.422;7.210;2023-04-03T04:08:49;64.53;;;61.00;;
56307;SDS011;42217;50.422;7.210;2023-04-03T04:11:15;65.70;;;62.63;;
56307;SDS011;42217;50.422;7.210;2023-04-03T04:13:40;63.03;;;59.73;;
56307;SDS011;42217;50.422;7.210;2023-04-03T04:16:06;61.03;;;58.07;;
56307;SDS011;42217;50.422;7.210;2023-04-03T04:18:33;62.30;;;59.30;;
56307;SDS011;42217;50.422;7.210;2023-04-03T04:20:59;61.23;;;58.43;;
56307;SDS011;42217;50.422;7.210;2023-04-03T04:23:25;62.87;;;59.97;;
56307;SDS011;42217;50.422;7.210;2023-04-03T04:25:51;66.47;;;63.37;;
56307;SDS011;42217;50.422;7.210;2023-04-03T04:28:17;71.60;;;68.17;;
56307;SDS011;42217;50.422;7.210;2023-04-03T04:30:43;64.10;;;61.10;;
56307;SDS011;42217;50.422;7.210;2023-04-03T04:33:10;64.67;;;61.13;;
56307;SDS011;42217;50.422;7.210;2023-04-03T04:35:36;63.70;;;60.73;;
56307;SDS011;42217;50.422;7.210;2023-04-03T04:38:02;66.50;;;63.03;;
56307;SDS011;42217;50.422;7.210;2023-04-03T04:40:28;69.07;;;65.70;;
56307;SDS011;42217;50.422;7.210;2023-04-03T04:42:54;61.23;;;58.27;;
56307;SDS011;42217;50.422;7.210;2023-04-03T04:45:20;64.87;;;61.90;;
56307;SDS011;42217;50.422;7.210;2023-04-03T04:47:46;71.60;;;68.10;;
56307;SDS011;42217;50.422;7.210;2023-04-03T04:50:11;74.23;;;70.37;;
56307;SDS011;42217;50.422;7.210;2023-04-03T04:52:37;66.17;;;62.77;;
56307;SDS011;42217;50.422;7.210;2023-04-03T04:55:04;72.97;;;69.07;;
56307;SDS011;42217;50.422;7.210;2023-04-03T04:57:30;68.07;;;64.60;;
56307;SDS011;42217;50.422;7.210;2023-04-03T04:59:56;73.37;;;69.50;;
56307;SDS011;42217;50.422;7.210;2023-04-03T05:02:21;73.60;;;70.10;;
56307;SDS011;42217;50.422;7.210;2023-04-03T05:04:47;68.80;;;65.40;;
56307;SDS011;42217;50.422;7.210;2023-04-03T05:07:15;88.00;;;83.70;;
56307;SDS011;42217;50.422;7.210;2023-04-03T05:09:41;71.53;;;67.73;;
56307;SDS011;42217;50.422;7.210;2023-04-03T05:12:07;101.67;;;96.83;;
56307;SDS011;42217;50.422;7.210;2023-04-03T05:14:33;72.73;;;69.43;;
56307;SDS011;42217;50.422;7.210;2023-04-03T05:16:58;70.50;;;66.80;;
56307;SDS011;42217;50.422;7.210;2023-04-03T05:19:24;73.77;;;69.97;;
56307;SDS011;42217;50.422;7.210;2023-04-03T05:21:50;71.50;;;67.90;;
56307;SDS011;42217;50.422;7.210;2023-04-03T05:24:16;78.30;;;74.80;;
56307;SDS011;42217;50.422;7.210;2023-04-03T05:26:42;66.73;;;63.37;;
56307;SDS011;42217;50.422;7.210;2023-04-03T05:29:08;72.43;;;68.93;;
56307;SDS011;42217;50.422;7.210;2023-04-03T05:31:38;77.10;;;73.10;;
56307;SDS011;42217;50.422;7.210;2023-04-03T05:34:03;80.47;;;76.67;;
56307;SDS011;42217;50.422;7.210;2023-04-03T05:36:29;70.00;;;66.60;;
56307;SDS011;42217;50.422;7.210;2023-04-03T05:38:55;80.07;;;76.43;;
56307;SDS011;42217;50.422;7.210;2023-04-03T05:41:22;80.13;;;75.97;;
56307;SDS011;42217;50.422;7.210;2023-04-03T05:43:48;77.80;;;74.10;;
56307;SDS011;42217;50.422;7.210;2023-04-03T05:46:17;80.77;;;76.70;;
56307;SDS011;42217;50.422;7.210;2023-04-03T05:48:45;80.23;;;76.23;;
56307;SDS011;42217;50.422;7.210;2023-04-03T05:51:15;82.60;;;78.70;;
56307;SDS011;42217;50.422;7.210;2023-04-03T05:53:43;86.45;;;82.25;;
56307;SDS011;42217;50.422;7.210;2023-04-03T05:56:10;82.03;;;77.83;;
56307;SDS011;42217;50.422;7.210;2023-04-03T05:58:36;77.60;;;73.27;;
56307;SDS011;42217;50.422;7.210;2023-04-03T06:01:02;82.53;;;78.17;;
56307;SDS011;42217;50.422;7.210;2023-04-03T06:03:28;75.37;;;71.70;;
56307;SDS011;42217;50.422;7.210;2023-04-03T06:05:53;72.83;;;68.80;;
56307;SDS011;42217;50.422;7.210;2023-04-03T06:08:19;65.83;;;62.73;;
56307;SDS011;42217;50.422;7.210;2023-04-03T06:10:45;69.03;;;65.67;;
56307;SDS011;42217;50.422;7.210;2023-04-03T06:13:11;68.20;;;64.90;;
56307;SDS011;42217;50.422;7.210;2023-04-03T06:15:37;71.67;;;68.27;;
56307;SDS011;42217;50.422;7.210;2023-04-03T06:18:04;67.43;;;64.13;;
56307;SDS011;42217;50.422;7.210;2023-04-03T06:20:31;62.97;;;59.97;;
56307;SDS011;42217;50.422;7.210;2023-04-03T06:22:57;64.47;;;61.47;;
56307;SDS011;42217;50.422;7.210;2023-04-03T06:25:23;67.67;;;64.57;;
56307;SDS011;42217;50.422;7.210;2023-04-03T06:27:49;65.43;;;61.80;;
56307;SDS011;42217;50.422;7.210;2023-04-03T06:30:15;59.57;;;56.57;;
56307;SDS011;42217;50.422;7.210;2023-04-03T06:32:46;60.67;;;56.93;;
56307;SDS011;42217;50.422;7.210;2023-04-03T06:35:11;62.80;;;59.43;;
56307;SDS011;42217;50.422;7.210;2023-04-03T06:37:37;62.63;;;59.43;;
56307;SDS011;42217;50.422;7.210;2023-04-03T06:40:03;66.90;;;63.50;;
56307;SDS011;42217;50.422;7.210;2023-04-03T06:42:29;67.10;;;63.53;;
56307;SDS011;42217;50.422;7.210;2023-04-03T06:44:55;59.47;;;56.37;;
56307;SDS011;42217;50.422;7.210;2023-04-03T06:47:21;61.83;;;58.60;;
56307;SDS011;42217;50.422;7.210;2023-04-03T06:49:46;65.33;;;62.33;;
56307;SDS011;42217;50.422;7.210;2023-04-03T06:52:12;61.77;;;58.73;;
56307;SDS011;42217;50.422;7.210;2023-04-03T06:54:39;62.30;;;59.17;;
56307;SDS011;42217;50.422;7.210;2023-04-03T06:57:05;58.83;;;55.63;;
56307;SDS011;42217;50.422;7.210;2023-04-03T06:59:31;64.87;;;61.53;;
56307;SDS011;42217;50.422;7.210;2023-04-03T07:01:57;64.70;;;60.83;;
56307;SDS011;42217;50.422;7.210;2023-04-03T07:04:24;70.03;;;66.13;;
56307;SDS011;42217;50.422;7.210;2023-04-03T07:06:51;68.53;;;65.20;;
56307;SDS011;42217;50.422;7.210;2023-04-03T07:09:17;66.90;;;63.87;;
56307;SDS011;42217;50.422;7.210;2023-04-03T07:11:43;67.47;;;63.87;;
56307;SDS011;42217;50.422;7.210;2023-04-03T07:14:10;68.07;;;64.77;;
56307;SDS011;42217;50.422;7.210;2023-04-03T07:16:35;69.57;;;66.17;;
56307;SDS011;42217;50.422;7.210;2023-04-03T07:19:02;66.77;;;62.83;;
56307;SDS011;42217;50.422;7.210;2023-04-03T07:21:28;65.13;;;61.23;;
56307;SDS011;42217;50.422;7.210;2023-04-03T07:23:54;68.40;;;64.73;;
56307;SDS011;42217;50.422;7.210;2023-04-03T07:26:21;70.40;;;66.60;;
56307;SDS011;42217;50.422;7.210;2023-04-03T07:28:48;71.53;;;67.90;;
56307;SDS011;42217;50.422;7.210;2023-04-03T07:31:15;67.90;;;64.13;;
56307;SDS011;42217;50.422;7.210;2023-04-03T07:33:42;75.07;;;71.00;;
56307;SDS011;42217;50.422;7.210;2023-04-03T07:36:10;71.90;;;68.33;;
56307;SDS011;42217;50.422;7.210;2023-04-03T07:38:40;88.83;;;84.07;;
56307;SDS011;42217;50.422;7.210;2023-04-03T07:41:05;71.50;;;67.40;;
56307;SDS011;42217;50.422;7.210;2023-04-03T07:43:31;81.27;;;77.40;;
56307;SDS011;42217;50.422;7.210;2023-04-03T07:45:59;79.23;;;75.60;;
56307;SDS011;42217;50.422;7.210;2023-04-03T07:48:25;75.70;;;71.17;;
56307;SDS011;42217;50.422;7.210;2023-04-03T07:50:52;75.43;;;71.90;;
56307;SDS011;42217;50.422;7.210;2023-04-03T07:53:17;75.57;;;72.00;;
56307;SDS011;42217;50.422;7.210;2023-04-03T07:55:46;75.37;;;71.50;;
56307;SDS011;42217;50.422;7.210;2023-04-03T07:58:13;78.53;;;74.80;;
56307;SDS011;42217;50.422;7.210;2023-04-03T08:00:40;129.37;;;122.83;;
56307;SDS011;42217;50.422;7.210;2023-04-03T08:03:07;74.83;;;71.33;;
56307;SDS011;42217;50.422;7.210;2023-04-03T08:05:45;75.20;;;71.60;;
56307;SDS011;42217;50.422;7.210;2023-04-03T08:08:13;83.23;;;79.03;;
56307;SDS011;42217;50.422;7.210;2023-04-03T08:10:41;88.00;;;83.63;;
56307;SDS011;42217;50.422;7.210;2023-04-03T08:13:07;91.87;;;87.57;;
56307;SDS011;42217;50.422;7.210;2023-04-03T08:15:34;86.90;;;82.90;;
56307;SDS011;42217;50.422;7.210;2023-04-03T08:18:00;88.17;;;84.17;;
56307;SDS011;42217;50.422;7.210;2023-04-03T08:20:27;94.17;;;89.57;;
56307;SDS011;42217;50.422;7.210;2023-04-03T08:22:53;83.87;;;79.93;;
56307;SDS011;42217;50.422;7.210;2023-04-03T08:25:19;94.63;;;89.87;;
56307;SDS011;42217;50.422;7.210;2023-04-03T08:27:44;87.67;;;83.47;;
56307;SDS011;42217;50.422;7.210;2023-04-03T08:30:10;92.77;;;88.33;;
56307;SDS011;42217;50.422;7.210;2023-04-03T08:32:39;98.43;;;93.80;;
56307;SDS011;42217;50.422;7.210;2023-04-03T08:35:07;93.57;;;89.10;;
56307;SDS011;42217;50.422;7.210;2023-04-03T08:37:36;98.20;;;93.10;;
56307;SDS011;42217;50.422;7.210;2023-04-03T08:40:03;86.97;;;82.93;;
56307;SDS011;42217;50.422;7.210;2023-04-03T08:43:04;102.67;;;97.70;;
56307;SDS011;42217;50.422;7.210;2023-04-03T08:45:46;105.27;;;100.53;;
56307;SDS011;42217;50.422;7.210;2023-04-03T08:48:17;110.47;;;105.30;;
56307;SDS011;42217;50.422;7.210;2023-04-03T08:50:55;101.18;;;96.57;;
56307;SDS011;42217;50.422;7.210;2023-04-03T08:53:25;110.10;;;104.97;;
56307;SDS011;42217;50.422;7.210;2023-04-03T08:55:57;114.07;;;108.43;;
56307;SDS011;42217;50.422;7.210;2023-04-03T08:58:28;104.03;;;99.23;;
56307;SDS011;42217;50.422;7.210;2023-04-03T09:00:58;116.53;;;110.70;;
56307;SDS011;42217;50.422;7.210;2023-04-03T09:03:28;112.83;;;107.70;;
56307;SDS011;42217;50.422;7.210;2023-04-03T09:06:23;116.37;;;110.77;;
56307;SDS011;42217;50.422;7.210;2023-04-03T09:25:42;121.60;;;116.10;;
56307;SDS011;42217;50.422;7.210;2023-04-03T09:28:09;111.90;;;106.53;;
56307;SDS011;42217;50.422;7.210;2023-04-03T09:30:35;124.00;;;117.93;;
56307;SDS011;42217;50.422;7.210;2023-04-03T09:33:01;123.87;;;117.83;;
56307;SDS011;42217;50.422;7.210;2023-04-03T09:35:29;111.87;;;106.53;;
56307;SDS011;42217;50.422;7.210;2023-04-03T09:38:01;124.57;;;118.47;;
56307;SDS011;42217;50.422;7.210;2023-04-03T09:40:40;119.37;;;113.93;;
56307;SDS011;42217;50.422;7.210;2023-04-03T09:45:50;116.93;;;111.33;;
56307;SDS011;42217;50.422;7.210;2023-04-03T09:48:18;111.37;;;106.37;;
56307;SDS011;42217;50.422;7.210;2023-04-03T09:51:01;117.93;;;112.33;;
56307;SDS011;42217;50.422;7.210;2023-04-03T09:53:30;114.10;;;108.97;;
56307;SDS011;42217;50.422;7.210;2023-04-03T09:55:59;115.43;;;110.20;;
56307;SDS011;42217;50.422;7.210;2023-04-03T09:58:33;115.73;;;110.27;;
56307;SDS011;42217;50.422;7.210;2023-04-03T10:01:03;118.13;;;112.90;;
56307;SDS011;42217;50.422;7.210;2023-04-03T10:03:35;120.63;;;115.13;;
56307;SDS011;42217;50.422;7.210;2023-04-03T10:06:04;111.70;;;106.27;;
56307;SDS011;42217;50.422;7.210;2023-04-03T10:22:39;114.03;;;108.90;;
56307;SDS011;42217;50.422;7.210;2023-04-03T10:28:02;112.93;;;107.93;;
56307;SDS011;42217;50.422;7.210;2023-04-03T10:30:55;107.40;;;102.57;;
56307;SDS011;42217;50.422;7.210;2023-04-03T10:33:39;105.63;;;100.93;;
56307;SDS011;42217;50.422;7.210;2023-04-03T10:36:19;110.30;;;104.93;;
56307;SDS011;42217;50.422;7.210;2023-04-03T10:39:12;108.43;;;103.63;;
56307;SDS011;42217;50.422;7.210;2023-04-03T10:41:57;104.47;;;99.50;;
56307;SDS011;42217;50.422;7.210;2023-04-03T10:44:41;104.07;;;99.33;;
56307;SDS011;42217;50.422;7.210;2023-04-03T10:47:21;97.47;;;92.57;;
56307;SDS011;42217;50.422;7.210;2023-04-03T10:50:08;112.13;;;106.77;;
56307;SDS011;42217;50.422;7.210;2023-04-03T10:58:29;97.30;;;92.90;;
56307;SDS011;42217;50.422;7.210;2023-04-03T11:01:06;103.50;;;98.47;;
56307;SDS011;42217;50.422;7.210;2023-04-03T11:03:41;99.50;;;94.60;;
56307;SDS011;42217;50.422;7.210;2023-04-03T11:06:13;91.93;;;87.43;;
56307;SDS011;42217;50.422;7.210;2023-04-03T11:11:35;99.80;;;95.20;;
56307;SDS011;42217;50.422;7.210;2023-04-03T11:14:14;98.18;;;93.50;;
56307;SDS011;42217;50.422;7.210;2023-04-03T11:17:07;99.57;;;95.10;;
56307;SDS011;42217;50.422;7.210;2023-04-03T11:19:49;95.27;;;90.77;;
56307;SDS011;42217;50.422;7.210;2023-04-03T11:22:41;100.27;;;95.50;;
56307;SDS011;42217;50.422;7.210;2023-04-03T11:27:42;96.83;;;92.13;;
56307;SDS011;42217;50.422;7.210;2023-04-03T11:30:15;106.47;;;101.37;;
56307;SDS011;42217;50.422;7.210;2023-04-03T11:35:38;94.40;;;89.93;;
56307;SDS011;42217;50.422;7.210;2023-04-03T11:38:27;96.33;;;91.93;;
56307;SDS011;42217;50.422;7.210;2023-04-03T11:40:59;96.53;;;91.87;;
56307;SDS011;42217;50.422;7.210;2023-04-03T11:43:30;100.57;;;95.83;;
56307;SDS011;42217;50.422;7.210;2023-04-03T11:45:58;101.93;;;97.23;;
56307;SDS011;42217;50.422;7.210;2023-04-03T12:01:45;102.20;;;97.57;;
56307;SDS011;42217;50.422;7.210;2023-04-03T12:04:23;93.70;;;89.23;;
56307;SDS011;42217;50.422;7.210;2023-04-03T12:07:00;95.30;;;90.87;;
56307;SDS011;42217;50.422;7.210;2023-04-03T12:12:22;85.90;;;81.83;;
56307;SDS011;42217;50.422;7.210;2023-04-03T12:14:52;94.20;;;89.90;;
56307;SDS011;42217;50.422;7.210;2023-04-03T12:17:22;86.57;;;82.47;;
56307;SDS011;42217;50.422;7.210;2023-04-03T12:19:51;93.97;;;89.67;;
56307;SDS011;42217;50.422;7.210;2023-04-03T12:22:18;85.80;;;81.87;;
56307;SDS011;42217;50.422;7.210;2023-04-03T12:24:49;90.03;;;86.03;;
56307;SDS011;42217;50.422;7.210;2023-04-03T12:45:47;90.90;;;86.83;;
56307;SDS011;42217;50.422;7.210;2023-04-03T12:48:56;87.47;;;82.90;;
56307;SDS011;42217;50.422;7.210;2023-04-03T12:51:39;86.10;;;81.93;;
56307;SDS011;42217;50.422;7.210;2023-04-03T12:54:17;81.63;;;77.93;;
56307;SDS011;42217;50.422;7.210;2023-04-03T12:56:49;91.88;;;87.78;;
56307;SDS011;42217;50.422;7.210;2023-04-03T13:01:44;83.57;;;79.43;;
56307;SDS011;42217;50.422;7.210;2023-04-03T13:04:17;80.53;;;76.67;;
56307;SDS011;42217;50.422;7.210;2023-04-03T13:06:43;80.07;;;76.33;;
56307;SDS011;42217;50.422;7.210;2023-04-03T13:09:20;85.27;;;81.27;;
56307;SDS011;42217;50.422;7.210;2023-04-03T13:11:48;79.43;;;75.77;;
56307;SDS011;42217;50.422;7.210;2023-04-03T13:14:21;87.90;;;83.93;;
56307;SDS011;42217;50.422;7.210;2023-04-03T13:16:58;86.68;;;82.68;;
56307;SDS011;42217;50.422;7.210;2023-04-03T13:19:29;90.13;;;85.90;;
56307;SDS011;42217;50.422;7.210;2023-04-03T13:22:05;85.13;;;81.03;;
56307;SDS011;42217;50.422;7.210;2023-04-03T13:24:34;82.77;;;78.70;;
56307;SDS011;42217;50.422;7.210;2023-04-03T13:27:03;85.73;;;81.73;;
56307;SDS011;42217;50.422;7.210;2023-04-03T13:29:31;80.93;;;77.23;;
56307;SDS011;42217;50.422;7.210;2023-04-03T13:32:00;76.27;;;72.87;;
56307;SDS011;42217;50.422;7.210;2023-04-03T13:34:41;83.37;;;79.57;;
56307;SDS011;42217;50.422;7.210;2023-04-03T13:37:19;77.40;;;73.90;;
56307;SDS011;42217;50.422;7.210;2023-04-03T13:40:04;83.07;;;79.23;;
56307;SDS011;42217;50.422;7.210;2023-04-03T13:42:40;78.93;;;75.33;;
56307;SDS011;42217;50.422;7.210;2023-04-03T13:45:26;78.17;;;74.50;;
56307;SDS011;42217;50.422;7.210;2023-04-03T13:48:06;66.87;;;63.80;;
56307;SDS011;42217;50.422;7.210;2023-04-03T13:51:00;69.03;;;65.53;;
56307;SDS011;42217;50.422;7.210;2023-04-03T13:53:30;64.80;;;61.63;;
56307;SDS011;42217;50.422;7.210;2023-04-03T13:56:00;57.63;;;54.83;;
56307;SDS011;42217;50.422;7.210;2023-04-03T13:58:35;57.53;;;54.75;;
56307;SDS011;42217;50.422;7.210;2023-04-03T14:06:29;52.25;;;49.50;;
56307;SDS011;42217;50.422;7.210;2023-04-03T14:08:54;46.00;;;43.55;;
56307;SDS011;42217;50.422;7.210;2023-04-03T14:11:24;43.35;;;40.90;;
56307;SDS011;42217;50.422;7.210;2023-04-03T14:13:57;42.85;;;40.75;;
56307;SDS011;42217;50.422;7.210;2023-04-03T14:16:30;41.50;;;39.40;;
56307;SDS011;42217;50.422;7.210;2023-04-03T14:21:28;37.85;;;36.05;;
56307;SDS011;42217;50.422;7.210;2023-04-03T14:23:54;36.65;;;34.85;;
56307;SDS011;42217;50.422;7.210;2023-04-03T14:26:21;39.63;;;37.55;;
56307;SDS011;42217;50.422;7.210;2023-04-03T14:28:50;39.45;;;37.55;;
56307;SDS011;42217;50.422;7.210;2023-04-03T14:31:18;41.30;;;39.15;;
56307;SDS011;42217;50.422;7.210;2023-04-03T14:33:46;39.17;;;37.00;;
56307;SDS011;42217;50.422;7.210;2023-04-03T14:36:16;39.38;;;37.45;;
56307;SDS011;42217;50.422;7.210;2023-04-03T14:38:48;39.70;;;37.78;;
56307;SDS011;42217;50.422;7.210;2023-04-03T14:41:16;41.65;;;39.25;;
56307;SDS011;42217;50.422;7.210;2023-04-03T14:43:45;40.92;;;38.83;;
56307;SDS011;42217;50.422;7.210;2023-04-03T14:46:19;38.30;;;36.38;;
56307;SDS011;42217;50.422;7.210;2023-04-03T14:48:51;41.00;;;38.97;;
56307;SDS011;42217;50.422;7.210;2023-04-03T14:51:17;44.97;;;42.70;;
56307;SDS011;42217;50.422;7.210;2023-04-03T14:53:43;37.58;;;35.85;;
56307;SDS011;42217;50.422;7.210;2023-04-03T14:56:26;41.08;;;39.13;;
56307;SDS011;42217;50.422;7.210;2023-04-03T14:58:57;39.65;;;37.80;;
56307;SDS011;42217;50.422;7.210;2023-04-03T15:01:26;39.88;;;37.92;;
56307;SDS011;42217;50.422;7.210;2023-04-03T15:03:53;37.50;;;35.67;;
56307;SDS011;42217;50.422;7.210;2023-04-03T15:06:19;44.35;;;42.15;;
56307;SDS011;42217;50.422;7.210;2023-04-03T15:08:46;46.53;;;44.00;;
56307;SDS011;42217;50.422;7.210;2023-04-03T15:11:13;43.58;;;41.47;;
56307;SDS011;42217;50.422;7.210;2023-04-03T15:13:39;40.33;;;38.22;;
56307;SDS011;42217;50.422;7.210;2023-04-03T15:16:06;38.25;;;36.35;;
56307;SDS011;42217;50.422;7.210;2023-04-03T15:18:40;40.08;;;38.10;;
56307;SDS011;42217;50.422;7.210;2023-04-03T15:21:06;40.78;;;38.90;;
56307;SDS011;42217;50.422;7.210;2023-04-03T15:23:32;41.90;;;39.75;;
56307;SDS011;42217;50.422;7.210;2023-04-03T15:25:58;42.67;;;40.67;;
56307;SDS011;42217;50.422;7.210;2023-04-03T15:28:28;44.40;;;42.30;;
56307;SDS011;42217;50.422;7.210;2023-04-03T15:31:04;41.53;;;39.58;;
56307;SDS011;42217;50.422;7.210;2023-04-03T15:33:30;43.35;;;41.28;;
56307;SDS011;42217;50.422;7.210;2023-04-03T15:35:57;46.75;;;44.55;;
56307;SDS011;42217;50.422;7.210;2023-04-03T15:38:23;46.42;;;43.92;;
56307;SDS011;42217;50.422;7.210;2023-04-03T15:40:49;41.47;;;39.47;;
56307;SDS011;42217;50.422;7.210;2023-04-03T15:43:15;43.13;;;41.08;;
56307;SDS011;42217;50.422;7.210;2023-04-03T15:45:42;41.22;;;39.38;;
56307;SDS011;42217;50.422;7.210;2023-04-03T15:48:09;40.78;;;38.80;;
56307;SDS011;42217;50.422;7.210;2023-04-03T15:50:35;39.90;;;38.00;;
56307;SDS011;42217;50.422;7.210;2023-04-03T15:53:01;39.85;;;38.05;;
56307;SDS011;42217;50.422;7.210;2023-04-03T15:55:28;44.33;;;42.10;;
56307;SDS011;42217;50.422;7.210;2023-04-03T15:57:55;46.53;;;44.00;;
56307;SDS011;42217;50.422;7.210;2023-04-03T16:00:21;42.38;;;40.03;;
56307;SDS011;42217;50.422;7.210;2023-04-03T16:02:48;44.50;;;41.97;;
56307;SDS011;42217;50.422;7.210;2023-04-03T16:05:18;47.72;;;44.97;;
56307;SDS011;42217;50.422;7.210;2023-04-03T16:07:44;43.83;;;41.65;;
56307;SDS011;42217;50.422;7.210;2023-04-03T16:10:12;47.22;;;45.03;;
56307;SDS011;42217;50.422;7.210;2023-04-03T16:12:40;43.67;;;41.58;;